Time;durP1;ratioP1;P1;durP2;ratioP2;P2;SDS_P1;SDS_P2;PMS_P1;PMS_P2;Temp;Humidity;BMP_temperature;BMP_pressure;BME280_temperature;BME280_humidity;BME280_pressure;Samples;Min_cycle;Max_cycle;Signal;HPM_P1;HPM_P2
2024/03/08 00:00:34;;;;;;;;;64.33;46.33;;;;;-143.90;100.00;77320.81;4962618;28;103036;-72
2024/03/08 00:03:02;;;;;;;;;57.50;48.00;;;;;-143.90;100.00;77327.03;4951086;28;102218;-71
2024/03/08 00:05:29;;;;;;;;;52.00;43.00;;;;;-143.90;100.00;77322.88;4964881;28;102325;-72
2024/03/08 00:07:56;;;;;;;;;64.25;46.75;;;;;-143.90;100.00;77329.09;4964647;28;104150;-72
2024/03/08 00:10:23;;;;;;;;;48.33;43.00;;;;;-143.90;100.00;77329.09;4963871;27;102644;-73
2024/03/08 00:12:54;;;;;;;;;33.33;30.67;;;;;-143.90;100.00;77327.03;4963680;27;104117;-73
2024/03/08 00:15:22;;;;;;;;;43.67;31.00;;;;;-143.90;100.00;77320.81;4959036;28;102468;-72
2024/03/08 00:17:50;;;;;;;;;37.67;23.00;;;;;-143.90;100.00;77322.88;4956954;28;104156;-73
2024/03/08 00:20:20;;;;;;;;;23.67;20.00;;;;;-143.90;100.00;77322.88;4960844;28;102193;-73
2024/03/08 00:22:47;;;;;;;;;26.00;16.00;;;;;-143.90;100.00;77331.16;4962717;28;102325;-73
2024/03/08 00:25:14;;;;;;;;;21.67;17.33;;;;;-143.90;100.00;77329.09;4955392;28;102482;-73
2024/03/08 00:27:41;;;;;;;;;17.67;17.67;;;;;-143.90;100.00;77331.16;4960246;28;104049;-73
2024/03/08 00:30:08;;;;;;;;;41.33;30.00;;;;;-143.90;100.00;77347.72;4960479;28;102875;-72
2024/03/08 00:32:35;;;;;;;;;47.67;39.00;;;;;-143.90;100.00;77347.72;4962200;28;104478;-73
2024/03/08 00:35:03;;;;;;;;;49.33;42.33;;;;;-143.90;100.00;77353.91;4951110;28;101986;-71
2024/03/08 00:37:29;;;;;;;;;51.67;35.00;;;;;-143.90;100.00;77347.72;4960020;28;104123;-72
2024/03/08 00:39:56;;;;;;;;;43.33;35.67;;;;;-143.90;100.00;77351.84;4964804;28;105878;-73
2024/03/08 00:42:24;;;;;;;;;47.00;37.67;;;;;-143.90;100.00;77351.84;4963162;28;102311;-72
2024/03/08 00:44:51;;;;;;;;;46.67;36.67;;;;;-143.90;100.00;77356.00;4963394;28;102456;-72
2024/03/08 00:47:18;;;;;;;;;34.67;25.67;;;;;-143.90;100.00;77349.78;4953723;28;103977;-72
2024/03/08 00:49:46;;;;;;;;;37.00;24.00;;;;;-143.90;100.00;77347.72;4960287;28;102822;-72
2024/03/08 00:52:13;;;;;;;;;19.33;13.00;;;;;-143.90;100.00;77347.72;4957483;27;102424;-73
2024/03/08 00:54:40;;;;;;;;;24.67;19.67;;;;;-143.90;100.00;77349.78;4963006;28;105268;-71
2024/03/08 00:57:06;;;;;;;;;37.00;30.67;;;;;-143.90;100.00;77351.84;4951170;28;104047;-71
2024/03/08 00:59:33;;;;;;;;;50.33;34.67;;;;;-143.90;100.00;77349.78;4961258;28;102590;-72
2024/03/08 01:02:01;;;;;;;;;35.33;29.33;;;;;-143.90;100.00;77347.72;4962120;28;101984;-71
2024/03/08 01:04:29;;;;;;;;;29.00;26.67;;;;;-143.90;100.00;77343.56;4964810;28;102039;-71
2024/03/08 01:06:59;;;;;;;;;26.33;20.33;;;;;-143.90;100.00;77339.44;4955884;28;103982;-72
2024/03/08 01:09:26;;;;;;;;;26.33;23.00;;;;;-143.90;100.00;77337.38;4961138;28;102140;-72
2024/03/08 01:11:54;;;;;;;;;24.33;18.00;;;;;-143.90;100.00;77341.50;4959706;28;104732;-72
2024/03/08 01:14:22;;;;;;;;;30.67;22.67;;;;;-143.90;100.00;77343.56;4962533;27;102415;-71
2024/03/08 01:16:50;;;;;;;;;27.67;23.00;;;;;-143.90;100.00;77347.72;4963017;27;104048;-72
2024/03/08 01:19:17;;;;;;;;;28.67;20.00;;;;;-143.90;100.00;77337.38;4951173;28;102413;-70
2024/03/08 01:21:44;;;;;;;;;56.00;35.00;;;;;-143.90;100.00;77343.56;4962712;28;102403;-72
2024/03/08 01:24:10;;;;;;;;;53.50;45.25;;;;;-143.90;100.00;77347.72;4963958;28;102276;-71
2024/03/08 01:26:38;;;;;;;;;64.75;46.75;;;;;-143.90;100.00;77347.72;4961587;28;104247;-71
2024/03/08 01:29:05;;;;;;;;;62.33;45.67;;;;;-143.90;100.00;77343.56;4955143;28;102498;-70
2024/03/08 01:31:32;;;;;;;;;60.67;43.33;;;;;-143.90;100.00;77343.56;4964048;28;102890;-71
2024/03/08 01:33:59;;;;;;;;;40.00;30.67;;;;;-143.90;100.00;77343.56;4965251;28;102519;-70
2024/03/08 01:36:26;;;;;;;;;51.67;45.67;;;;;-143.90;100.00;77343.56;4962813;27;103635;-71
2024/03/08 01:38:52;;;;;;;;;67.25;49.50;;;;;-143.90;100.00;77337.38;4959780;28;102511;-70
2024/03/08 01:41:20;;;;;;;;;62.00;46.50;;;;;-143.90;100.00;77335.31;4958593;27;102898;-70
2024/03/08 01:43:47;;;;;;;;;62.75;47.00;;;;;-143.90;100.00;77341.50;4963931;27;102027;-70
2024/03/08 01:46:17;;;;;;;;;60.67;42.00;;;;;-143.90;100.00;77339.44;4964538;27;104220;-69
2024/03/08 01:48:45;;;;;;;;;54.75;43.75;;;;;-143.90;100.00;77331.16;4964041;27;102421;-71
2024/03/08 01:51:12;;;;;;;;;68.25;52.75;;;;;-143.90;100.00;77341.50;4949388;27;102830;-70
2024/03/08 01:53:42;;;;;;;;;73.25;53.75;;;;;-143.90;100.00;77343.56;4964326;27;102080;-70
2024/03/08 01:56:08;;;;;;;;;72.75;55.00;;;;;-143.90;100.00;77343.56;4965120;27;102830;-70
2024/03/08 01:58:35;;;;;;;;;55.75;46.50;;;;;-143.90;100.00;77343.56;4962443;28;102469;-70
2024/03/08 02:01:03;;;;;;;;;71.75;49.75;;;;;-143.90;100.00;77351.84;4952591;28;104913;-70
2024/03/08 02:03:31;;;;;;;;;66.75;51.50;;;;;-143.90;100.00;77345.66;4962424;27;102457;-70
2024/03/08 02:06:01;;;;;;;;;74.50;54.25;;;;;-143.90;100.00;77349.78;4962552;27;103912;-70
2024/03/08 02:08:28;;;;;;;;;75.00;58.50;;;;;-143.90;100.00;77356.00;4963642;28;102598;-70
2024/03/08 02:10:55;;;;;;;;;81.50;59.00;;;;;-143.90;100.00;77360.13;4957628;28;104882;-70
2024/03/08 02:13:21;;;;;;;;;77.75;51.00;;;;;-143.90;100.00;77353.91;4958969;27;102496;-70
2024/03/08 02:16:02;;;;;;;;;63.25;41.75;;;;;-143.90;100.00;77347.72;4961723;27;103991;-70
2024/03/08 02:18:29;;;;;;;;;74.25;50.00;;;;;-143.90;100.00;77356.00;4959265;28;102402;-70
2024/03/08 02:20:58;;;;;;;;;72.25;52.50;;;;;-143.90;100.00;77356.00;4955824;28;102343;-70
2024/03/08 02:23:26;;;;;;;;;65.25;50.50;;;;;-143.90;100.00;77356.00;4954977;27;101974;-70
2024/03/08 02:25:54;;;;;;;;;57.33;44.67;;;;;-143.90;100.00;77356.00;4957036;27;103982;-69
2024/03/08 02:28:22;;;;;;;;;59.25;45.25;;;;;-143.90;100.00;77351.84;4960501;27;102895;-70
2024/03/08 02:30:56;;;;;;;;;63.50;47.75;;;;;-143.90;100.00;77347.72;4955077;27;102426;-70
2024/03/08 02:33:26;;;;;;;;;67.75;45.00;;;;;-143.90;100.00;77343.56;4956352;27;102405;-69
2024/03/08 02:35:53;;;;;;;;;58.75;46.75;;;;;-143.90;100.00;77337.38;4964142;28;108838;-70
2024/03/08 02:38:22;;;;;;;;;45.00;36.33;;;;;-143.90;100.00;77341.50;4960502;28;102166;-70
2024/03/08 02:40:50;;;;;;;;;39.00;31.00;;;;;-143.90;100.00;77329.09;4955412;27;102572;-68
2024/03/08 02:43:19;;;;;;;;;49.33;40.33;;;;;-143.90;100.00;77331.16;4947556;27;102469;-69
2024/03/08 02:45:46;;;;;;;;;44.67;34.33;;;;;-143.90;100.00;77327.03;4961104;28;104478;-69
2024/03/08 02:48:14;;;;;;;;;27.33;20.67;;;;;-143.90;100.00;77322.88;4961510;28;102438;-70
2024/03/08 02:50:42;;;;;;;;;58.33;43.33;;;;;-143.90;100.00;77327.03;4959967;28;101921;-69
2024/03/08 02:53:09;;;;;;;;;41.00;36.33;;;;;-143.90;100.00;77318.75;4954498;28;104199;-69
2024/03/08 02:55:37;;;;;;;;;55.25;40.75;;;;;-143.90;100.00;77318.75;4964326;28;103974;-70
2024/03/08 02:58:04;;;;;;;;;59.00;46.00;;;;;-143.90;100.00;77314.63;4963730;28;103071;-69
2024/03/08 03:00:31;;;;;;;;;69.75;49.00;;;;;-143.90;100.00;77314.63;4961853;27;102365;-70
2024/03/08 03:02:57;;;;;;;;;80.50;51.00;;;;;-143.90;100.00;77302.22;4960915;28;102244;-69
2024/03/08 03:05:24;;;;;;;;;61.75;45.00;;;;;-143.90;100.00;77308.41;4952949;27;110924;-69
2024/03/08 03:07:51;;;;;;;;;65.25;53.25;;;;;-143.90;100.00;77306.34;4961310;28;102999;-69
2024/03/08 03:10:19;;;;;;;;;67.00;46.25;;;;;-143.90;100.00;77306.34;4962905;28;102553;-70
2024/03/08 03:12:46;;;;;;;;;63.25;47.50;;;;;-143.90;100.00;77293.94;4966885;28;102175;-70
2024/03/08 03:15:13;;;;;;;;;61.00;43.67;;;;;-143.90;100.00;77289.78;4953192;28;104016;-69
2024/03/08 03:17:40;;;;;;;;;60.75;45.00;;;;;-143.90;100.00;77283.59;4967070;28;102534;-70
2024/03/08 03:20:13;;;;;;;;;67.25;51.00;;;;;-143.90;100.00;77281.53;4961385;27;102124;-69
2024/03/08 03:22:41;;;;;;;;;49.00;40.67;;;;;-143.90;100.00;77277.38;4961690;28;103559;-70
2024/03/08 03:25:09;;;;;;;;;54.33;43.00;;;;;-143.90;100.00;77264.97;4951714;27;104045;-70
2024/03/08 03:27:36;;;;;;;;;66.67;48.67;;;;;-143.90;100.00;77258.78;4962998;28;103152;-69
2024/03/08 03:30:20;;;;;;;;;72.75;50.00;;;;;-143.90;100.00;77252.56;4961202;28;102644;-70
2024/03/08 03:32:50;;;;;;;;;59.25;46.00;;;;;-143.90;100.00;77250.50;4963708;28;102085;-69
2024/03/08 03:35:20;;;;;;;;;66.50;51.25;;;;;-143.90;100.00;77246.34;4951401;28;104027;-70
2024/03/08 03:40:36;;;;;;;;;54.67;42.67;;;;;-143.90;100.00;77227.75;4960043;28;102669;-70
2024/03/08 03:43:03;;;;;;;;;53.67;40.33;;;;;-143.90;100.00;77225.66;4952552;28;103212;-69
2024/03/08 03:45:34;;;;;;;;;50.00;39.67;;;;;-143.90;100.00;77217.41;4958838;28;104028;-70
2024/03/08 03:48:06;;;;;;;;;63.67;47.00;;;;;-143.90;100.00;77211.19;4962602;28;102662;-70
2024/03/08 03:50:34;;;;;;;;;52.67;45.67;;;;;-143.90;100.00;77207.06;4959485;28;102284;-70
2024/03/08 03:53:04;;;;;;;;;70.25;51.75;;;;;-143.90;100.00;77207.06;4955154;27;102418;-69
2024/03/08 03:55:30;;;;;;;;;58.67;47.00;;;;;-143.90;100.00;77198.78;4962066;27;103959;-70
2024/03/08 03:57:58;;;;;;;;;64.33;44.67;;;;;-143.90;100.00;77194.66;4966901;27;102162;-70
2024/03/08 04:00:26;;;;;;;;;58.67;47.00;;;;;-143.90;100.00;77196.72;4961437;28;102252;-70
2024/03/08 04:02:54;;;;;;;;;69.00;51.00;;;;;-143.90;100.00;77182.22;4962398;28;103966;-71
2024/03/08 04:05:21;;;;;;;;;50.00;40.00;;;;;-143.90;100.00;77178.09;4957788;27;104113;-70
2024/03/08 04:07:48;;;;;;;;;62.33;45.33;;;;;-143.90;100.00;77182.22;4963472;28;104375;-70
2024/03/08 04:10:15;;;;;;;;;62.00;44.33;;;;;-143.90;100.00;77173.97;4963252;27;102254;-70
2024/03/08 04:12:41;;;;;;;;;61.67;46.00;;;;;-143.90;100.00;77173.97;4963552;28;102406;-70
2024/03/08 04:15:10;;;;;;;;;46.33;38.33;;;;;-143.90;100.00;77155.34;4952389;28;103944;-71
2024/03/08 04:17:38;;;;;;;;;55.00;43.00;;;;;-143.90;100.00;77165.69;4960602;28;102132;-70
2024/03/08 04:20:09;;;;;;;;;46.67;41.33;;;;;-143.90;100.00;77155.34;4961470;28;101990;-71
2024/03/08 04:22:37;;;;;;;;;49.67;38.33;;;;;-143.90;100.00;77145.00;4964445;28;102580;-70
2024/03/08 04:25:04;;;;;;;;;36.00;33.00;;;;;-143.90;100.00;77136.72;4952255;28;104166;-71
2024/03/08 04:27:32;;;;;;;;;45.67;34.67;;;;;-143.90;100.00;77122.25;4963298;28;102091;-71
2024/03/08 04:29:59;;;;;;;;;41.00;32.67;;;;;-143.90;100.00;77122.25;4965914;28;102150;-71
2024/03/08 04:32:26;;;;;;;;;47.67;34.33;;;;;-143.90;100.00;77120.19;4963573;28;102333;-71
2024/03/08 04:34:52;;;;;;;;;42.00;32.67;;;;;-143.90;100.00;77113.97;4959051;27;103076;-72
2024/03/08 04:37:21;;;;;;;;;49.33;41.67;;;;;-143.90;100.00;77111.91;4956725;27;102149;-72
2024/03/08 04:39:48;;;;;;;;;53.67;42.00;;;;;-143.90;100.00;77111.91;4958943;28;102635;-71
2024/03/08 04:42:18;;;;;;;;;41.33;36.33;;;;;-143.90;100.00;77109.84;4963148;28;101948;-72
2024/03/08 04:44:45;;;;;;;;;51.33;42.00;;;;;-143.90;100.00;77118.13;4960175;28;105716;-72
2024/03/08 04:47:12;;;;;;;;;30.67;26.67;;;;;-143.90;100.00;77107.78;4950809;28;102362;-71
2024/03/08 04:49:38;;;;;;;;;44.67;36.33;;;;;-143.90;100.00;77103.63;4957773;28;102517;-72
2024/03/08 04:52:06;;;;;;;;;43.00;34.00;;;;;-143.90;100.00;77111.91;4962479;28;102652;-71
2024/03/08 04:54:34;;;;;;;;;61.00;42.67;;;;;-143.90;100.00;77116.03;4961888;28;104007;-71
2024/03/08 04:57:01;;;;;;;;;69.00;50.00;;;;;-143.90;100.00;77109.84;4953130;28;107307;-70
2024/03/08 04:59:31;;;;;;;;;58.00;43.00;;;;;-143.90;100.00;77105.69;4960675;28;102064;-71
2024/03/08 05:01:57;;;;;;;;;61.67;44.67;;;;;-143.90;100.00;77109.84;4960212;28;102608;-71
2024/03/08 05:04:24;;;;;;;;;54.67;34.67;;;;;-143.90;100.00;77107.78;4960688;28;104094;-73
2024/03/08 05:06:50;;;;;;;;;61.00;45.00;;;;;-143.90;100.00;77109.84;4966038;28;102132;-72
2024/03/08 05:09:18;;;;;;;;;53.67;41.67;;;;;-143.90;100.00;77105.69;4952605;27;102143;-72
2024/03/08 05:11:46;;;;;;;;;51.00;37.33;;;;;-143.90;100.00;77101.56;4966281;28;102302;-72
2024/03/08 05:14:19;;;;;;;;;59.67;45.33;;;;;-143.90;100.00;77095.38;4963982;27;104009;-72
2024/03/08 05:16:48;;;;;;;;;40.67;33.67;;;;;-143.90;100.00;77093.28;4967229;27;102444;-72
2024/03/08 05:19:19;;;;;;;;;49.33;39.33;;;;;-143.90;100.00;77103.63;4955719;28;109868;-73
2024/03/08 05:21:49;;;;;;;;;64.33;45.33;;;;;-143.90;100.00;77103.63;4966730;28;102107;-72
2024/03/08 05:24:17;;;;;;;;;48.67;36.33;;;;;-143.90;100.00;77103.63;4964534;27;104051;-72
2024/03/08 05:26:46;;;;;;;;;43.33;36.00;;;;;-143.90;100.00;77107.78;4963089;28;102675;-72
2024/03/08 05:29:13;;;;;;;;;44.33;34.00;;;;;-143.90;100.00;77107.78;4951331;27;102501;-71
2024/03/08 05:31:49;;;;;;;;;47.67;38.67;;;;;-143.90;100.00;77118.13;4965204;28;105259;-71
2024/03/08 05:34:16;;;;;;;;;55.67;40.67;;;;;-143.90;100.00;77120.19;4967669;28;104147;-72
2024/03/08 05:36:44;;;;;;;;;47.00;37.67;;;;;-143.90;100.00;77116.03;4964976;27;102394;-72
2024/03/08 05:39:15;;;;;;;;;53.00;42.33;;;;;-143.90;100.00;77109.84;4955306;27;102674;-72
2024/03/08 05:41:43;;;;;;;;;52.33;41.67;;;;;-143.90;100.00;77116.03;4961277;28;102707;-72
2024/03/08 05:44:10;;;;;;;;;49.00;33.33;;;;;-143.90;100.00;77105.69;4964862;28;104084;-72
2024/03/08 05:46:37;;;;;;;;;39.67;29.67;;;;;-143.90;100.00;77107.78;4962830;28;102458;-73
2024/03/08 05:49:05;;;;;;;;;52.00;42.00;;;;;-143.90;100.00;77107.78;4954262;27;102335;-72
2024/03/08 05:51:36;;;;;;;;;43.00;32.67;;;;;-143.90;100.00;77097.44;4967252;28;102397;-72
2024/03/08 05:54:05;;;;;;;;;42.67;37.00;;;;;-143.90;100.00;77085.03;4964835;28;104170;-71
2024/03/08 05:56:33;;;;;;;;;39.67;30.33;;;;;-143.90;100.00;77091.22;4962627;28;102127;-72
2024/03/08 05:59:00;;;;;;;;;40.67;34.67;;;;;-143.90;100.00;77087.09;4960879;28;102453;-72
2024/03/08 06:01:28;;;;;;;;;47.33;35.00;;;;;-143.90;100.00;77078.81;4964851;28;102162;-73
2024/03/08 06:03:56;;;;;;;;;39.67;33.67;;;;;-143.90;100.00;77076.75;4963035;28;104095;-73
2024/03/08 06:06:24;;;;;;;;;46.33;36.67;;;;;-143.90;100.00;77076.75;4964655;27;102613;-73
2024/03/08 06:08:52;;;;;;;;;43.67;34.67;;;;;-143.90;100.00;77076.75;4966084;28;102695;-72
2024/03/08 06:11:20;;;;;;;;;47.00;39.67;;;;;-143.90;100.00;77076.75;4952539;28;102496;-72
2024/03/08 06:13:48;;;;;;;;;32.33;32.33;;;;;-143.90;100.00;77078.81;4961787;27;104014;-73
2024/03/08 06:16:15;;;;;;;;;47.33;41.33;;;;;-143.90;100.00;77099.50;4962991;28;102295;-73
2024/03/08 06:18:41;;;;;;;;;45.00;39.00;;;;;-143.90;100.00;77099.50;4966206;27;102057;-74
2024/03/08 06:21:11;;;;;;;;;37.33;33.67;;;;;-143.90;100.00;77091.22;4954056;27;101984;-73
2024/03/08 06:23:39;;;;;;;;;45.33;33.33;;;;;-143.90;100.00;77095.38;4963231;28;104302;-72
2024/03/08 06:26:06;;;;;;;;;34.33;31.67;;;;;-143.90;100.00;77085.03;4965931;28;102271;-72
2024/03/08 06:28:34;;;;;;;;;42.67;34.33;;;;;-143.90;100.00;77078.81;4964704;28;102804;-71
2024/03/08 06:31:02;;;;;;;;;39.67;34.67;;;;;-143.90;100.00;77076.75;4956724;28;105436;-71
2024/03/08 06:33:30;;;;;;;;;44.67;38.67;;;;;-143.90;100.00;77091.22;4965353;27;104171;-72
2024/03/08 06:35:57;;;;;;;;;40.00;31.33;;;;;-143.90;100.00;77082.94;4965338;27;102335;-73
2024/03/08 06:38:24;;;;;;;;;39.00;33.33;;;;;-143.90;100.00;77064.34;4965391;28;102270;-73
2024/03/08 06:40:54;;;;;;;;;38.67;33.33;;;;;-143.90;100.00;77070.53;4965521;28;102047;-73
2024/03/08 06:43:22;;;;;;;;;42.00;35.33;;;;;-143.90;100.00;77082.94;4955244;28;105037;-73
2024/03/08 06:45:48;;;;;;;;;41.00;33.33;;;;;-143.90;100.00;77074.69;4963822;28;102337;-73
2024/03/08 06:48:16;;;;;;;;;36.67;29.00;;;;;-143.90;100.00;77066.41;4959255;27;103113;-72
2024/03/08 06:50:44;;;;;;;;;54.00;41.00;;;;;-143.90;100.00;77072.59;4963103;27;103300;-73
2024/03/08 06:53:13;;;;;;;;;42.67;33.00;;;;;-143.90;100.00;77074.69;4953606;28;104047;-72
2024/03/08 06:55:40;;;;;;;;;44.00;41.33;;;;;-143.90;100.00;77078.81;4963795;28;102063;-72
2024/03/08 06:58:07;;;;;;;;;45.33;34.33;;;;;-143.90;100.00;77068.47;4962366;28;102044;-72
2024/03/08 07:00:33;;;;;;;;;42.67;37.00;;;;;-143.90;100.00;77070.53;4963987;28;102222;-73
2024/03/08 07:03:03;;;;;;;;;45.33;39.00;;;;;-143.90;100.00;77064.34;4960494;28;104052;-73
2024/03/08 07:05:30;;;;;;;;;44.67;35.33;;;;;-143.90;100.00;77062.25;4957901;28;102852;-73
2024/03/08 07:07:58;;;;;;;;;43.67;33.33;;;;;-143.90;100.00;77031.25;4963259;27;102727;-73
2024/03/08 07:10:25;;;;;;;;;34.00;27.67;;;;;-143.90;100.00;77018.84;4965485;28;102505;-73
2024/03/08 07:12:55;;;;;;;;;39.00;21.33;;;;;-143.90;100.00;77002.28;4956907;28;104078;-73
2024/03/08 07:15:23;;;;;;;;;35.00;29.33;;;;;-143.90;100.00;76998.16;4959902;28;102135;-73
2024/03/08 07:17:52;;;;;;;;;43.00;33.33;;;;;-143.90;100.00;77004.34;4963531;28;102377;-74
2024/03/08 07:20:19;;;;;;;;;32.00;29.67;;;;;-143.90;100.00;76979.53;4960016;28;102471;-72
2024/03/08 07:22:52;;;;;;;;;34.00;26.00;;;;;-143.90;100.00;76958.84;4961881;27;104166;-72
2024/03/08 07:25:20;;;;;;;;;30.00;26.67;;;;;-143.90;100.00;76960.91;4952155;28;102304;-72
2024/03/08 07:27:48;;;;;;;;;26.33;20.33;;;;;-143.90;100.00;76942.31;4962853;28;102160;-73
2024/03/08 07:33:02;;;;;;;;;25.00;23.33;;;;;-143.90;100.00;76919.56;4955801;28;108971;-72
2024/03/08 07:35:29;;;;;;;;;28.00;19.67;;;;;-143.90;100.00;76917.47;4963066;28;102289;-73
2024/03/08 07:37:56;;;;;;;;;29.67;23.67;;;;;-143.90;100.00;76931.97;4962682;28;102207;-73
2024/03/08 07:40:23;;;;;;;;;35.00;25.67;;;;;-143.90;100.00;76927.81;4965588;28;104671;-73
2024/03/08 07:42:51;;;;;;;;;41.33;36.67;;;;;-143.90;100.00;76971.25;4963089;28;104122;-73
2024/03/08 07:45:17;;;;;;;;;48.00;38.33;;;;;-143.90;100.00;77000.22;4953569;27;102075;-75
2024/03/08 07:47:44;;;;;;;;;34.33;23.67;;;;;-143.90;100.00;77039.50;4963026;28;102411;-73
2024/03/08 07:50:11;;;;;;;;;44.67;36.67;;;;;-143.90;100.00;77041.59;4961730;28;102443;-73
2024/03/08 07:52:37;;;;;;;;;47.00;34.33;;;;;-143.90;100.00;77033.31;4961387;28;104754;-73
2024/03/08 07:55:05;;;;;;;;;36.67;30.00;;;;;-143.90;100.00;77000.22;4951017;28;102523;-73
2024/03/08 07:57:33;;;;;;;;;28.00;27.33;;;;;-143.90;100.00;76985.75;4964891;28;102412;-73
2024/03/08 07:59:59;;;;;;;;;33.00;27.33;;;;;-143.90;100.00;76985.75;4966640;28;102125;-72
2024/03/08 08:02:26;;;;;;;;;36.00;31.67;;;;;-143.90;100.00;77004.34;4961103;28;104506;-73
2024/03/08 08:04:53;;;;;;;;;39.67;35.33;;;;;-143.90;100.00;77000.22;4963852;27;103561;-73
2024/03/08 08:07:19;;;;;;;;;56.33;44.33;;;;;-143.90;100.00;77002.28;4952214;28;102570;-73
2024/03/08 08:09:46;;;;;;;;;45.00;37.33;;;;;-143.90;100.00;76991.94;4963404;27;103022;-73
2024/03/08 08:12:12;;;;;;;;;43.67;38.67;;;;;-143.90;100.00;76989.88;4962007;28;103535;-75
2024/03/08 08:14:39;;;;;;;;;40.00;37.00;;;;;-143.90;100.00;76981.59;4961147;28;102111;-73
2024/03/08 08:17:08;;;;;;;;;42.33;34.33;;;;;-143.90;100.00;76979.53;4951435;27;101940;-72
2024/03/08 08:19:41;;;;;;;;;42.67;37.00;;;;;-143.90;100.00;77000.22;4964822;28;102419;-73
2024/03/08 08:22:08;;;;;;;;;58.00;39.67;;;;;-143.90;100.00;76996.09;4964532;28;105211;-73
2024/03/08 08:24:36;;;;;;;;;48.00;38.67;;;;;-143.90;100.00;76991.94;4962569;28;102473;-73
2024/03/08 08:27:04;;;;;;;;;44.33;30.67;;;;;-143.90;100.00;76994.00;4950534;28;102196;-73
2024/03/08 08:29:30;;;;;;;;;57.00;38.00;;;;;-143.90;100.00;76994.00;4962961;28;102951;-73
2024/03/08 08:32:00;;;;;;;;;46.67;40.33;;;;;-143.90;100.00;76991.94;4955251;28;105308;-73
2024/03/08 08:34:29;;;;;;;;;61.33;44.00;;;;;-143.90;100.00;76994.00;4960732;28;102686;-74
2024/03/08 08:36:56;;;;;;;;;46.00;34.00;;;;;-143.90;100.00;76996.09;4959639;28;104568;-74
2024/03/08 08:39:25;;;;;;;;;49.00;41.00;;;;;-143.90;100.00;76958.84;4960274;28;105283;-73
2024/03/08 08:41:52;;;;;;;;;50.33;34.33;;;;;-143.90;100.00;76975.41;4962620;27;103991;-73
2024/03/08 08:44:21;;;;;;;;;40.00;35.67;;;;;-143.90;100.00;76944.38;4966165;28;102597;-73
2024/03/08 08:46:48;;;;;;;;;49.33;38.00;;;;;-143.90;100.00;76938.16;4966529;27;102029;-73
2024/03/08 08:49:20;;;;;;;;;53.67;42.00;;;;;-143.90;100.00;76958.84;4959391;28;102744;-73
2024/03/08 08:51:50;;;;;;;;;54.33;45.00;;;;;-143.90;100.00;76940.25;4964897;28;105075;-74
2024/03/08 08:54:20;;;;;;;;;47.00;38.00;;;;;-143.90;100.00;76938.16;4966169;27;102097;-73
2024/03/08 08:56:47;;;;;;;;;52.67;39.33;;;;;-143.90;100.00;76936.09;4963969;28;101827;-74
2024/03/08 08:59:14;;;;;;;;;51.67;40.33;;;;;-143.90;100.00;76938.16;4953436;28;102064;-74
2024/03/08 09:01:40;;;;;;;;;44.33;35.67;;;;;-143.90;100.00;76909.22;4965914;28;103839;-73
2024/03/08 09:04:11;;;;;;;;;56.67;43.00;;;;;-143.90;100.00;76919.56;4964980;28;102488;-73
2024/03/08 09:06:38;;;;;;;;;50.67;34.00;;;;;-143.90;100.00;76925.75;4963703;27;102095;-73
2024/03/08 09:09:05;;;;;;;;;49.67;38.33;;;;;-143.90;100.00;76911.28;4953360;28;102057;-73
2024/03/08 09:11:32;;;;;;;;;47.33;37.00;;;;;-143.90;100.00;76898.88;4963030;27;104140;-74
2024/03/08 09:13:59;;;;;;;;;54.33;39.00;;;;;-143.90;100.00;76884.38;4967600;28;102340;-73
2024/03/08 09:16:26;;;;;;;;;50.67;38.33;;;;;-143.90;100.00;76861.63;4964475;28;102180;-73
2024/03/08 09:18:53;;;;;;;;;51.67;39.33;;;;;-143.90;100.00;76863.72;4967484;28;102665;-73
2024/03/08 09:21:19;;;;;;;;;45.00;37.33;;;;;-143.90;100.00;76867.84;4954095;28;104275;-73
2024/03/08 09:23:49;;;;;;;;;46.00;40.00;;;;;-143.90;100.00;76867.84;4962710;28;102449;-73
2024/03/08 09:26:16;;;;;;;;;48.00;38.33;;;;;-143.90;100.00;76871.97;4963020;28;102212;-73
2024/03/08 09:28:56;;;;;;;;;38.00;33.00;;;;;-143.90;100.00;76876.13;4962772;27;103110;-73
2024/03/08 09:31:23;;;;;;;;;58.00;40.00;;;;;-143.90;100.00;76867.84;4957985;28;104250;-73
2024/03/08 09:33:50;;;;;;;;;31.67;26.67;;;;;-143.90;100.00;76814.06;4964956;27;102697;-73
2024/03/08 09:36:17;;;;;;;;;29.00;24.67;;;;;-143.90;100.00;76741.69;4964336;28;101936;-74
2024/03/08 09:38:44;;;;;;;;;31.33;28.33;;;;;-143.90;100.00;76698.25;4966550;28;102231;-73
2024/03/08 09:41:10;;;;;;;;;33.00;23.33;;;;;-143.90;100.00;76640.34;4954360;28;104126;-73
2024/03/08 09:43:37;;;;;;;;;35.33;25.00;;;;;-143.90;100.00;76598.97;4964809;27;102347;-73
2024/03/08 09:46:06;;;;;;;;;20.00;17.50;;;;;-143.90;100.00;76563.81;4963322;28;101893;-73
2024/03/08 09:48:34;;;;;;;;;34.67;29.00;;;;;-143.90;100.00;76588.63;4963834;28;102189;-72
2024/03/08 09:51:01;;;;;;;;;40.00;31.00;;;;;-143.90;100.00;76594.84;4959529;27;108841;-72
2024/03/08 09:53:28;;;;;;;;;28.00;24.50;;;;;-143.90;100.00;76594.84;4964799;28;102546;-71
2024/03/08 09:55:55;;;;;;;;;28.25;24.50;;;;;-143.90;100.00;76588.63;4964722;28;102706;-74
2024/03/08 10:01:04;;;;;;;;;40.00;33.67;;;;;-143.90;100.00;76603.13;4957088;28;108508;-73
2024/03/08 10:03:32;;;;;;;;;46.67;37.00;;;;;-143.90;100.00;76598.97;4966097;28;102578;-72
2024/03/08 10:06:02;;;;;;;;;42.67;38.00;;;;;-143.90;100.00;76596.91;4966547;28;103946;-72
2024/03/08 10:08:29;;;;;;;;;41.33;32.00;;;;;-143.90;100.00;76570.03;4961626;28;102090;-73
2024/03/08 10:11:00;;;;;;;;;38.00;31.25;;;;;-143.90;100.00;76576.22;4969042;28;104147;-73
2024/03/08 10:13:28;;;;;;;;;38.25;29.75;;;;;-143.90;100.00;76574.16;4960265;28;102337;-74
2024/03/08 10:15:54;;;;;;;;;35.25;29.75;;;;;-143.90;100.00;76596.91;4964623;27;102321;-73
2024/03/08 10:18:22;;;;;;;;;27.75;19.75;;;;;-143.90;100.00;76592.78;4964743;28;102418;-73
2024/03/08 10:21:07;;;;;;;;;24.25;21.50;;;;;-143.90;100.00;76578.31;4961530;28;103633;-73
2024/03/08 10:23:34;;;;;;;;;30.50;27.25;;;;;-143.90;100.00;76574.16;4960930;27;102204;-72
2024/03/08 10:26:14;;;;;;;;;42.50;33.75;;;;;-143.90;100.00;76574.16;4965914;28;102915;-73
2024/03/08 10:28:47;;;;;;;;;32.25;22.75;;;;;-143.90;100.00;76553.47;4962728;28;102691;-73
2024/03/08 10:31:19;;;;;;;;;33.75;29.00;;;;;-143.90;100.00;76528.66;4954738;28;103896;-72
2024/03/08 10:33:46;;;;;;;;;48.33;40.00;;;;;-143.90;100.00;76601.03;4962757;28;102409;-72
2024/03/08 10:36:15;;;;;;;;;50.00;40.00;;;;;-143.90;100.00;76603.13;4961586;28;102880;-72
2024/03/08 10:38:46;;;;;;;;;43.75;31.50;;;;;-143.90;100.00;76559.69;4962603;28;102519;-72
2024/03/08 10:41:16;;;;;;;;;40.50;34.00;;;;;-143.90;100.00;76520.38;4954149;28;104356;-72
2024/03/08 10:44:21;;;;;;;;;42.50;30.50;;;;;-143.90;100.00;76479.03;4965952;28;102269;-71
2024/03/08 10:47:16;;;;;;;;;42.75;35.00;;;;;-143.90;100.00;76472.81;4963486;28;101831;-72
2024/03/08 10:49:54;;;;;;;;;30.75;27.50;;;;;-143.90;100.00;76425.25;4964033;28;104727;-72
2024/03/08 10:52:22;;;;;;;;;30.50;25.00;;;;;-143.90;100.00;76377.69;4963339;27;103625;-72
2024/03/08 10:54:52;;;;;;;;;31.25;25.50;;;;;-143.90;78.35;76363.22;4964258;28;102876;-71
2024/03/08 10:57:23;;;;;;;;;29.25;24.25;;;;;-143.90;75.65;76326.00;4953204;28;104123;-73
2024/03/08 10:59:51;;;;;;;;;34.75;31.00;;;;;-143.90;72.95;76330.13;4965150;28;102882;-72